PWSweather.com
Personal Weather Stations
Station Observations
KC1FX
To The East Of Littleton, Nh, Bethlehem, NH 03574

To The East Of Littleton, NhBethlehem, NH 03574

Lat: 44.2755, Lon: -71.7128

Elevation: 1279

Station Type: Davis Weather Monitor II

http://kc1fx-weather.info

Latest ConditionsUpdated 10:40:00 AM EST Tuesday, Jan 16, 2018
Currently Today's Max Today's Min Today's Average
Temperature 16.3°F-8.7°C 16.4°F-8.7°C 4.2°F-15.4°C 8.3°F-13.2°C
Dew Point 10.0°F-12.2°C 10.0°F-12.2°C 0.0°F-17.8°C 3.7°F-15.7°C
Winds Calm Calm 2.0 mph N3.2 kmh N - 0.1 mph 0.2 kmh
Wind Gusts -- 3.0 mph4.8 kmh - -
Humidity 76% 85% 75% 81%
Pressure 30.36 in1028.1 mb 30.41 in1029.8 mb 30.34 in1027.4 mb -
Hour Temp Dew Point Humidity Winds Wind Gusts Pressure Precip Precip Rate Daily Precip Total
10:40 AM 16.3°F-8.7°C 10.0°F-12.2°C 76% Calm Calm -- 30.36 in1028.1 mb 0.00 in0.0 mm 0.00 in0.0 mm 0.09 in2.3 mm
10:30 AM 15.9°F-8.9°C 9.6°F-12.4°C 76% Calm Calm 1.0 mph1.6 kmh 30.37 in1028.4 mb 0.00 in0.0 mm 0.00 in0.0 mm 0.09 in2.3 mm
10:20 AM 16.4°F-8.7°C 9.7°F-12.4°C 75% Calm Calm 1.0 mph1.6 kmh 30.37 in1028.4 mb 0.00 in0.0 mm 0.00 in0.0 mm 0.09 in2.3 mm
10:10 AM 16.4°F-8.7°C 9.7°F-12.4°C 75% Calm Calm 1.0 mph1.6 kmh 30.37 in1028.4 mb 0.00 in0.0 mm 0.00 in0.0 mm 0.09 in2.3 mm
10:00 AM 15.6°F-9.1°C 9.9°F-12.3°C 78% Calm Calm 1.0 mph1.6 kmh 30.37 in1028.4 mb 0.00 in0.0 mm 0.00 in0.0 mm 0.09 in2.3 mm
09:50 AM 15.2°F-9.3°C 8.9°F-12.8°C 76% Calm Calm 1.0 mph1.6 kmh 30.36 in1028.1 mb 0.00 in0.0 mm 0.00 in0.0 mm 0.09 in2.3 mm
09:40 AM 15.2°F-9.3°C 8.9°F-12.8°C 76% Calm Calm 1.0 mph1.6 kmh 30.36 in1028.1 mb 0.00 in0.0 mm 0.00 in0.0 mm 0.09 in2.3 mm
09:30 AM 15.5°F-9.2°C 9.2°F-12.7°C 76% Calm Calm 1.0 mph1.6 kmh 30.37 in1028.4 mb 0.00 in0.0 mm 0.00 in0.0 mm 0.09 in2.3 mm
09:20 AM 15.9°F-8.9°C 9.6°F-12.4°C 76% Calm Calm -- 30.36 in1028.1 mb 0.00 in0.0 mm 0.00 in0.0 mm 0.09 in2.3 mm
09:10 AM 14.8°F-9.6°C 9.2°F-12.7°C 78% Calm Calm -- 30.36 in1028.1 mb 0.00 in0.0 mm 0.00 in0.0 mm 0.09 in2.3 mm
09:00 AM 13.7°F-10.2°C 8.7°F-12.9°C 80% Calm Calm -- 30.36 in1028.1 mb 0.00 in0.0 mm 0.00 in0.0 mm 0.09 in2.3 mm
08:50 AM 12.8°F-10.7°C 7.8°F-13.4°C 80% Calm Calm 1.0 mph1.6 kmh 30.36 in1028.1 mb 0.00 in0.0 mm 0.00 in0.0 mm 0.09 in2.3 mm
08:40 AM 12.5°F-10.8°C 7.8°F-13.4°C 81% Calm Calm -- 30.36 in1028.1 mb 0.00 in0.0 mm 0.00 in0.0 mm 0.09 in2.3 mm
08:30 AM 11.5°F-11.4°C 7.2°F-13.8°C 82% Calm Calm -- 30.36 in1028.1 mb 0.00 in0.0 mm 0.00 in0.0 mm 0.09 in2.3 mm
08:20 AM 10.5°F-11.9°C 6.2°F-14.3°C 82% Calm Calm -- 30.35 in1027.8 mb 0.00 in0.0 mm 0.00 in0.0 mm 0.09 in2.3 mm
08:10 AM 9.9°F-12.3°C 5.6°F-14.7°C 82% Calm Calm -- 30.36 in1028.1 mb 0.00 in0.0 mm 0.00 in0.0 mm 0.09 in2.3 mm
08:00 AM 9.6°F-12.4°C 5.3°F-14.8°C 82% Calm Calm -- 30.36 in1028.1 mb 0.00 in0.0 mm 0.00 in0.0 mm 0.09 in2.3 mm
07:50 AM 9.2°F-12.7°C 4.9°F-15.1°C 82% Calm Calm -- 30.35 in1027.8 mb 0.00 in0.0 mm 0.00 in0.0 mm 0.09 in2.3 mm
07:40 AM 8.8°F-12.9°C 4.8°F-15.1°C 83% Calm Calm -- 30.36 in1028.1 mb 0.00 in0.0 mm 0.00 in0.0 mm 0.09 in2.3 mm
07:30 AM 8.5°F-13.1°C 4.2°F-15.4°C 82% Calm Calm -- 30.35 in1027.8 mb 0.00 in0.0 mm 0.00 in0.0 mm 0.09 in2.3 mm
07:20 AM 8.4°F-13.1°C 4.1°F-15.5°C 82% Calm Calm -- 30.35 in1027.8 mb 0.00 in0.0 mm 0.00 in0.0 mm 0.09 in2.3 mm
07:10 AM 8.2°F-13.2°C 3.9°F-15.6°C 82% Calm Calm -- 30.35 in1027.8 mb 0.00 in0.0 mm 0.00 in0.0 mm 0.09 in2.3 mm
07:00 AM 8.3°F-13.2°C 4.0°F-15.6°C 82% Calm Calm -- 30.36 in1028.1 mb 0.00 in0.0 mm 0.00 in0.0 mm 0.09 in2.3 mm
06:50 AM 8.1°F-13.3°C 4.1°F-15.5°C 83% Calm Calm -- 30.35 in1027.8 mb 0.00 in0.0 mm 0.00 in0.0 mm 0.09 in2.3 mm
06:40 AM 8.0°F-13.3°C 3.7°F-15.7°C 82% Calm Calm -- 30.35 in1027.8 mb 0.00 in0.0 mm 0.00 in0.0 mm 0.09 in2.3 mm
06:30 AM 8.1°F-13.3°C 4.1°F-15.5°C 83% Calm Calm -- 30.35 in1027.8 mb 0.00 in0.0 mm 0.00 in0.0 mm 0.09 in2.3 mm
06:20 AM 7.9°F-13.4°C 4.2°F-15.4°C 85% Calm Calm -- 30.34 in1027.4 mb 0.00 in0.0 mm 0.00 in0.0 mm 0.09 in2.3 mm
06:10 AM 7.9°F-13.4°C 4.2°F-15.4°C 85% Calm Calm -- 30.36 in1028.1 mb 0.00 in0.0 mm 0.00 in0.0 mm 0.09 in2.3 mm
06:00 AM 7.6°F-13.6°C 3.9°F-15.6°C 85% Calm Calm -- 30.35 in1027.8 mb 0.00 in0.0 mm 0.00 in0.0 mm 0.09 in2.3 mm
05:50 AM 7.3°F-13.7°C 3.3°F-15.9°C 83% Calm Calm -- 30.35 in1027.8 mb 0.00 in0.0 mm 0.00 in0.0 mm 0.09 in2.3 mm
05:40 AM 7.3°F-13.7°C 3.3°F-15.9°C 83% Calm Calm -- 30.36 in1028.1 mb 0.00 in0.0 mm 0.00 in0.0 mm 0.09 in2.3 mm
05:30 AM 6.8°F-14.0°C 2.6°F-16.3°C 82% Calm Calm -- 30.36 in1028.1 mb 0.00 in0.0 mm 0.00 in0.0 mm 0.09 in2.3 mm
05:20 AM 6.7°F-14.1°C 2.5°F-16.4°C 82% Calm Calm 1.0 mph1.6 kmh 30.34 in1027.4 mb 0.00 in0.0 mm 0.00 in0.0 mm 0.09 in2.3 mm
05:10 AM 6.7°F-14.1°C 2.5°F-16.4°C 82% Calm Calm 1.0 mph1.6 kmh 30.35 in1027.8 mb 0.00 in0.0 mm 0.00 in0.0 mm 0.09 in2.3 mm
05:00 AM 6.5°F-14.2°C 2.3°F-16.5°C 82% Calm Calm -- 30.36 in1028.1 mb 0.00 in0.0 mm 0.00 in0.0 mm 0.09 in2.3 mm
04:50 AM 6.2°F-14.3°C 2.0°F-16.7°C 82% Calm Calm -- 30.36 in1028.1 mb 0.00 in0.0 mm 0.00 in0.0 mm 0.09 in2.3 mm
04:40 AM 6.1°F-14.4°C 1.9°F-16.7°C 82% Calm Calm -- 30.35 in1027.8 mb 0.00 in0.0 mm 0.00 in0.0 mm 0.09 in2.3 mm
04:30 AM 6.1°F-14.4°C 1.9°F-16.7°C 82% Calm Calm -- 30.35 in1027.8 mb 0.00 in0.0 mm 0.00 in0.0 mm 0.09 in2.3 mm
04:20 AM 6.0°F-14.4°C 1.8°F-16.8°C 82% Calm Calm -- 30.35 in1027.8 mb 0.00 in0.0 mm 0.00 in0.0 mm 0.09 in2.3 mm
04:10 AM 5.7°F-14.6°C 1.5°F-16.9°C 82% Calm Calm -- 30.35 in1027.8 mb 0.00 in0.0 mm 0.00 in0.0 mm 0.09 in2.3 mm
04:00 AM 5.6°F-14.7°C 1.1°F-17.2°C 81% Calm Calm -- 30.35 in1027.8 mb 0.00 in0.0 mm 0.00 in0.0 mm 0.09 in2.3 mm
03:50 AM 5.5°F-14.7°C 1.0°F-17.2°C 81% Calm Calm -- 30.35 in1027.8 mb 0.00 in0.0 mm 0.00 in0.0 mm 0.09 in2.3 mm
03:40 AM 5.3°F-14.8°C 0.5°F-17.5°C 80% Calm Calm -- 30.36 in1028.1 mb 0.00 in0.0 mm 0.00 in0.0 mm 0.09 in2.3 mm
03:30 AM 5.4°F-14.8°C 0.9°F-17.3°C 81% Calm Calm -- 30.36 in1028.1 mb 0.00 in0.0 mm 0.00 in0.0 mm 0.09 in2.3 mm
03:20 AM 5.0°F-15.0°C 0.5°F-17.5°C 81% Calm Calm -- 30.36 in1028.1 mb 0.00 in0.0 mm 0.00 in0.0 mm 0.09 in2.3 mm
03:10 AM 5.4°F-14.8°C 0.9°F-17.3°C 81% Calm Calm -- 30.36 in1028.1 mb 0.00 in0.0 mm 0.00 in0.0 mm 0.09 in2.3 mm
03:00 AM 5.6°F-14.7°C 1.1°F-17.2°C 81% Calm Calm -- 30.37 in1028.4 mb 0.00 in0.0 mm 0.00 in0.0 mm 0.09 in2.3 mm
02:50 AM 5.5°F-14.7°C 1.0°F-17.2°C 81% Calm Calm -- 30.38 in1028.8 mb 0.00 in0.0 mm 0.00 in0.0 mm 0.09 in2.3 mm
02:40 AM 5.4°F-14.8°C 1.2°F-17.1°C 82% Calm Calm -- 30.38 in1028.8 mb 0.00 in0.0 mm 0.00 in0.0 mm 0.09 in2.3 mm
02:30 AM 5.3°F-14.8°C 1.1°F-17.2°C 82% Calm Calm -- 30.38 in1028.8 mb 0.00 in0.0 mm 0.00 in0.0 mm 0.09 in2.3 mm
02:20 AM 5.5°F-14.7°C 1.3°F-17.1°C 82% Calm Calm -- 30.40 in1029.5 mb 0.00 in0.0 mm 0.00 in0.0 mm 0.09 in2.3 mm
02:10 AM 5.4°F-14.8°C 1.5°F-16.9°C 83% Calm Calm 2.0 mph3.2 kmh 30.39 in1029.1 mb 0.00 in0.0 mm 0.00 in0.0 mm 0.09 in2.3 mm
02:00 AM 5.2°F-14.9°C 1.3°F-17.1°C 83% Calm Calm 3.0 mph4.8 kmh 30.39 in1029.1 mb 0.00 in0.0 mm 0.00 in0.0 mm 0.09 in2.3 mm
01:50 AM 5.3°F-14.8°C 1.1°F-17.2°C 82% Calm Calm 2.0 mph3.2 kmh 30.40 in1029.5 mb 0.00 in0.0 mm 0.00 in0.0 mm 0.09 in2.3 mm
01:40 AM 5.3°F-14.8°C 1.1°F-17.2°C 82% Calm Calm 1.0 mph1.6 kmh 30.40 in1029.5 mb 0.00 in0.0 mm 0.00 in0.0 mm 0.09 in2.3 mm
01:30 AM 5.2°F-14.9°C 1.0°F-17.2°C 82% Calm Calm -- 30.39 in1029.1 mb 0.00 in0.0 mm 0.00 in0.0 mm 0.09 in2.3 mm
01:20 AM 5.6°F-14.7°C 1.4°F-17.0°C 82% Calm Calm -- 30.39 in1029.1 mb 0.00 in0.0 mm 0.00 in0.0 mm 0.09 in2.3 mm
01:10 AM 5.4°F-14.8°C 1.2°F-17.1°C 82% Calm Calm -- 30.39 in1029.1 mb 0.00 in0.0 mm 0.00 in0.0 mm 0.09 in2.3 mm
01:00 AM 5.1°F-14.9°C 0.9°F-17.3°C 82% Calm Calm 3.0 mph4.8 kmh 30.38 in1028.8 mb 0.00 in0.0 mm 0.00 in0.0 mm 0.09 in2.3 mm
12:50 AM 4.7°F-15.2°C 0.8°F-17.3°C 83% 2.0 mph N3.2 kmh N 3.0 mph4.8 kmh 30.39 in1029.1 mb 0.00 in0.0 mm 0.00 in0.0 mm 0.09 in2.3 mm
12:40 AM 4.5°F-15.3°C 0.6°F-17.4°C 83% 1.0 mph N1.6 kmh N 2.0 mph3.2 kmh 30.39 in1029.1 mb 0.00 in0.0 mm 0.00 in0.0 mm 0.09 in2.3 mm
12:30 AM 4.2°F-15.4°C 0.0°F-17.8°C 82% Calm Calm -- 30.39 in1029.1 mb 0.00 in0.0 mm 0.00 in0.0 mm 0.09 in2.3 mm
12:20 AM 4.6°F-15.2°C 0.4°F-17.6°C 82% Calm Calm 3.0 mph4.8 kmh 30.41 in1029.8 mb 0.00 in0.0 mm 0.00 in0.0 mm 0.09 in2.3 mm
12:10 AM 4.6°F-15.2°C 0.4°F-17.6°C 82% Calm Calm 2.0 mph3.2 kmh 30.40 in1029.5 mb 0.00 in0.0 mm 0.00 in0.0 mm 0.09 in2.3 mm
12:00 AM 4.9°F-15.1°C 0.4°F-17.6°C 81% 1.0 mph N1.6 kmh N 3.0 mph4.8 kmh 30.40 in1029.5 mb 0.09 in2.3 mm 0.00 in0.0 mm 0.09 in2.3 mm